sensor_id;sensor_type;location;lat;lon;timestamp;P1;durP1;ratioP1;P2;durP2;ratioP2
19973;SDS011;10148;47.694;9.442;2023-02-18T00:01:44;3.80;;;2.97;;
19973;SDS011;10148;47.694;9.442;2023-02-18T00:04:09;5.15;;;3.05;;
19973;SDS011;10148;47.694;9.442;2023-02-18T00:06:35;4.32;;;3.13;;
19973;SDS011;10148;47.694;9.442;2023-02-18T00:09:01;5.95;;;3.10;;
19973;SDS011;10148;47.694;9.442;2023-02-18T00:11:29;3.72;;;2.65;;
19973;SDS011;10148;47.694;9.442;2023-02-18T00:13:57;5.47;;;3.08;;
19973;SDS011;10148;47.694;9.442;2023-02-18T00:16:25;5.20;;;2.78;;
19973;SDS011;10148;47.694;9.442;2023-02-18T00:18:55;4.50;;;2.95;;
19973;SDS011;10148;47.694;9.442;2023-02-18T00:21:22;3.60;;;2.80;;
19973;SDS011;10148;47.694;9.442;2023-02-18T00:23:48;3.70;;;2.83;;
19973;SDS011;10148;47.694;9.442;2023-02-18T00:26:14;3.85;;;2.88;;
19973;SDS011;10148;47.694;9.442;2023-02-18T00:28:40;4.00;;;2.72;;
19973;SDS011;10148;47.694;9.442;2023-02-18T00:31:18;3.22;;;2.60;;
19973;SDS011;10148;47.694;9.442;2023-02-18T00:33:49;3.85;;;2.58;;
19973;SDS011;10148;47.694;9.442;2023-02-18T00:36:16;4.18;;;2.65;;
19973;SDS011;10148;47.694;9.442;2023-02-18T00:38:53;3.80;;;2.72;;
19973;SDS011;10148;47.694;9.442;2023-02-18T00:41:21;3.47;;;2.65;;
19973;SDS011;10148;47.694;9.442;2023-02-18T00:43:47;3.72;;;3.00;;
19973;SDS011;10148;47.694;9.442;2023-02-18T00:46:13;2.60;;;1.98;;
19973;SDS011;10148;47.694;9.442;2023-02-18T00:48:39;3.00;;;2.22;;
19973;SDS011;10148;47.694;9.442;2023-02-18T00:51:05;4.57;;;2.58;;
19973;SDS011;10148;47.694;9.442;2023-02-18T00:53:32;3.40;;;2.90;;
19973;SDS011;10148;47.694;9.442;2023-02-18T00:55:57;3.28;;;2.35;;
19973;SDS011;10148;47.694;9.442;2023-02-18T00:58:23;4.00;;;2.78;;
19973;SDS011;10148;47.694;9.442;2023-02-18T01:00:49;3.28;;;2.88;;
19973;SDS011;10148;47.694;9.442;2023-02-18T01:03:15;3.40;;;2.28;;
19973;SDS011;10148;47.694;9.442;2023-02-18T01:05:41;5.28;;;2.20;;
19973;SDS011;10148;47.694;9.442;2023-02-18T01:08:07;4.35;;;2.60;;
19973;SDS011;10148;47.694;9.442;2023-02-18T01:10:35;3.55;;;2.20;;
19973;SDS011;10148;47.694;9.442;2023-02-18T01:13:04;2.70;;;2.10;;
19973;SDS011;10148;47.694;9.442;2023-02-18T01:15:29;4.55;;;2.25;;
19973;SDS011;10148;47.694;9.442;2023-02-18T01:17:55;2.97;;;2.00;;
19973;SDS011;10148;47.694;9.442;2023-02-18T01:20:21;2.45;;;1.85;;
19973;SDS011;10148;47.694;9.442;2023-02-18T01:22:47;3.13;;;1.95;;
19973;SDS011;10148;47.694;9.442;2023-02-18T01:25:13;4.13;;;1.77;;
19973;SDS011;10148;47.694;9.442;2023-02-18T01:27:39;3.28;;;2.10;;
19973;SDS011;10148;47.694;9.442;2023-02-18T01:30:05;3.85;;;2.58;;
19973;SDS011;10148;47.694;9.442;2023-02-18T01:32:32;3.75;;;2.40;;
19973;SDS011;10148;47.694;9.442;2023-02-18T01:35:01;4.35;;;2.28;;
19973;SDS011;10148;47.694;9.442;2023-02-18T01:37:28;3.83;;;2.50;;
19973;SDS011;10148;47.694;9.442;2023-02-18T01:39:54;2.92;;;2.33;;
19973;SDS011;10148;47.694;9.442;2023-02-18T01:42:20;3.67;;;2.50;;
19973;SDS011;10148;47.694;9.442;2023-02-18T01:44:48;2.58;;;1.95;;
19973;SDS011;10148;47.694;9.442;2023-02-18T01:47:14;4.25;;;2.80;;
19973;SDS011;10148;47.694;9.442;2023-02-18T01:49:41;3.10;;;2.53;;
19973;SDS011;10148;47.694;9.442;2023-02-18T01:52:11;2.92;;;2.65;;
19973;SDS011;10148;47.694;9.442;2023-02-18T01:54:44;2.67;;;2.47;;
19973;SDS011;10148;47.694;9.442;2023-02-18T01:57:23;3.55;;;2.47;;
19973;SDS011;10148;47.694;9.442;2023-02-18T02:00:14;3.78;;;2.58;;
19973;SDS011;10148;47.694;9.442;2023-02-18T02:02:47;3.13;;;2.78;;
19973;SDS011;10148;47.694;9.442;2023-02-18T02:05:15;3.95;;;2.97;;
19973;SDS011;10148;47.694;9.442;2023-02-18T02:07:41;4.15;;;2.53;;
19973;SDS011;10148;47.694;9.442;2023-02-18T02:10:09;4.45;;;3.10;;
19973;SDS011;10148;47.694;9.442;2023-02-18T02:15:40;5.10;;;2.90;;
19973;SDS011;10148;47.694;9.442;2023-02-18T02:21:09;4.03;;;3.10;;
19973;SDS011;10148;47.694;9.442;2023-02-18T02:26:34;4.10;;;3.22;;
19973;SDS011;10148;47.694;9.442;2023-02-18T02:29:25;3.28;;;2.65;;
19973;SDS011;10148;47.694;9.442;2023-02-18T02:32:20;2.90;;;2.33;;
19973;SDS011;10148;47.694;9.442;2023-02-18T02:42:29;4.72;;;2.55;;
19973;SDS011;10148;47.694;9.442;2023-02-18T02:48:12;3.15;;;2.55;;
19973;SDS011;10148;47.694;9.442;2023-02-18T02:51:04;4.90;;;2.90;;
19973;SDS011;10148;47.694;9.442;2023-02-18T02:53:44;2.78;;;2.40;;
19973;SDS011;10148;47.694;9.442;2023-02-18T02:56:17;3.20;;;2.40;;
19973;SDS011;10148;47.694;9.442;2023-02-18T02:58:57;2.72;;;2.50;;
19973;SDS011;10148;47.694;9.442;2023-02-18T03:01:29;2.72;;;2.20;;
19973;SDS011;10148;47.694;9.442;2023-02-18T03:07:28;2.90;;;2.60;;
19973;SDS011;10148;47.694;9.442;2023-02-18T03:10:30;3.08;;;2.08;;
19973;SDS011;10148;47.694;9.442;2023-02-18T03:16:03;2.97;;;1.98;;
19973;SDS011;10148;47.694;9.442;2023-02-18T03:18:45;2.50;;;2.13;;
19973;SDS011;10148;47.694;9.442;2023-02-18T03:21:31;2.38;;;2.05;;
19973;SDS011;10148;47.694;9.442;2023-02-18T03:26:41;2.67;;;1.70;;
19973;SDS011;10148;47.694;9.442;2023-02-18T03:29:14;2.63;;;1.83;;
19973;SDS011;10148;47.694;9.442;2023-02-18T03:31:42;2.05;;;1.33;;
19973;SDS011;10148;47.694;9.442;2023-02-18T03:34:12;2.40;;;1.55;;
19973;SDS011;10148;47.694;9.442;2023-02-18T03:36:41;1.85;;;1.58;;
19973;SDS011;10148;47.694;9.442;2023-02-18T03:39:08;3.28;;;1.75;;
19973;SDS011;10148;47.694;9.442;2023-02-18T03:41:37;2.13;;;1.88;;
19973;SDS011;10148;47.694;9.442;2023-02-18T03:44:04;1.65;;;1.27;;
19973;SDS011;10148;47.694;9.442;2023-02-18T03:46:32;1.73;;;1.35;;
19973;SDS011;10148;47.694;9.442;2023-02-18T03:48:59;2.08;;;1.48;;
19973;SDS011;10148;47.694;9.442;2023-02-18T03:51:25;2.28;;;1.63;;
19973;SDS011;10148;47.694;9.442;2023-02-18T03:53:51;4.20;;;1.23;;
19973;SDS011;10148;47.694;9.442;2023-02-18T03:56:17;1.33;;;1.08;;
19973;SDS011;10148;47.694;9.442;2023-02-18T03:58:43;1.23;;;1.00;;
19973;SDS011;10148;47.694;9.442;2023-02-18T04:01:08;2.10;;;1.10;;
19973;SDS011;10148;47.694;9.442;2023-02-18T04:03:34;1.58;;;0.80;;
19973;SDS011;10148;47.694;9.442;2023-02-18T04:06:00;0.85;;;0.60;;
19973;SDS011;10148;47.694;9.442;2023-02-18T04:08:25;0.98;;;0.80;;
19973;SDS011;10148;47.694;9.442;2023-02-18T04:10:51;1.10;;;0.60;;
19973;SDS011;10148;47.694;9.442;2023-02-18T04:13:16;0.70;;;0.70;;
19973;SDS011;10148;47.694;9.442;2023-02-18T04:15:43;0.60;;;0.60;;
19973;SDS011;10148;47.694;9.442;2023-02-18T04:18:09;0.98;;;0.60;;
19973;SDS011;10148;47.694;9.442;2023-02-18T04:20:34;1.63;;;0.63;;
19973;SDS011;10148;47.694;9.442;2023-02-18T04:23:01;0.93;;;0.77;;
19973;SDS011;10148;47.694;9.442;2023-02-18T04:25:27;0.90;;;0.80;;
19973;SDS011;10148;47.694;9.442;2023-02-18T04:27:53;1.65;;;0.68;;
19973;SDS011;10148;47.694;9.442;2023-02-18T04:30:19;1.95;;;0.88;;
19973;SDS011;10148;47.694;9.442;2023-02-18T04:32:44;0.63;;;0.60;;
19973;SDS011;10148;47.694;9.442;2023-02-18T04:35:10;1.02;;;0.80;;
19973;SDS011;10148;47.694;9.442;2023-02-18T04:37:35;1.00;;;0.80;;
19973;SDS011;10148;47.694;9.442;2023-02-18T04:40:01;4.50;;;1.02;;
19973;SDS011;10148;47.694;9.442;2023-02-18T04:42:27;0.98;;;0.88;;
19973;SDS011;10148;47.694;9.442;2023-02-18T04:44:53;0.63;;;0.60;;
19973;SDS011;10148;47.694;9.442;2023-02-18T04:47:18;1.75;;;1.00;;
19973;SDS011;10148;47.694;9.442;2023-02-18T04:49:44;1.05;;;0.90;;
19973;SDS011;10148;47.694;9.442;2023-02-18T04:52:09;0.90;;;0.88;;
19973;SDS011;10148;47.694;9.442;2023-02-18T04:54:35;1.00;;;0.77;;
19973;SDS011;10148;47.694;9.442;2023-02-18T04:57:00;1.27;;;0.90;;
19973;SDS011;10148;47.694;9.442;2023-02-18T04:59:26;1.75;;;0.80;;
19973;SDS011;10148;47.694;9.442;2023-02-18T05:01:51;1.67;;;0.90;;
19973;SDS011;10148;47.694;9.442;2023-02-18T05:04:17;1.05;;;0.85;;
19973;SDS011;10148;47.694;9.442;2023-02-18T05:06:43;1.35;;;0.88;;
19973;SDS011;10148;47.694;9.442;2023-02-18T05:09:09;1.50;;;1.15;;
19973;SDS011;10148;47.694;9.442;2023-02-18T05:11:35;1.23;;;0.90;;
19973;SDS011;10148;47.694;9.442;2023-02-18T05:14:01;1.15;;;1.00;;
19973;SDS011;10148;47.694;9.442;2023-02-18T05:16:26;1.80;;;0.85;;
19973;SDS011;10148;47.694;9.442;2023-02-18T05:18:52;1.60;;;0.80;;
19973;SDS011;10148;47.694;9.442;2023-02-18T05:21:17;1.08;;;0.82;;
19973;SDS011;10148;47.694;9.442;2023-02-18T05:23:43;1.55;;;0.68;;
19973;SDS011;10148;47.694;9.442;2023-02-18T05:26:08;1.23;;;1.10;;
19973;SDS011;10148;47.694;9.442;2023-02-18T05:28:34;7.35;;;1.20;;
19973;SDS011;10148;47.694;9.442;2023-02-18T05:31:00;1.25;;;1.05;;
19973;SDS011;10148;47.694;9.442;2023-02-18T05:33:25;1.10;;;1.00;;
19973;SDS011;10148;47.694;9.442;2023-02-18T05:35:51;1.20;;;0.90;;
19973;SDS011;10148;47.694;9.442;2023-02-18T05:38:17;1.45;;;0.93;;
19973;SDS011;10148;47.694;9.442;2023-02-18T05:40:42;1.58;;;1.08;;
19973;SDS011;10148;47.694;9.442;2023-02-18T05:43:08;2.53;;;1.13;;
19973;SDS011;10148;47.694;9.442;2023-02-18T05:45:34;1.20;;;1.00;;
19973;SDS011;10148;47.694;9.442;2023-02-18T05:47:59;1.25;;;1.15;;
19973;SDS011;10148;47.694;9.442;2023-02-18T05:50:25;2.17;;;1.10;;
19973;SDS011;10148;47.694;9.442;2023-02-18T05:52:51;1.27;;;1.00;;
19973;SDS011;10148;47.694;9.442;2023-02-18T05:55:16;1.30;;;1.20;;
19973;SDS011;10148;47.694;9.442;2023-02-18T05:57:42;2.65;;;1.00;;
19973;SDS011;10148;47.694;9.442;2023-02-18T06:00:08;1.65;;;1.10;;
19973;SDS011;10148;47.694;9.442;2023-02-18T06:02:34;1.63;;;1.30;;
19973;SDS011;10148;47.694;9.442;2023-02-18T06:05:00;1.88;;;1.30;;
19973;SDS011;10148;47.694;9.442;2023-02-18T06:07:26;2.03;;;1.23;;
19973;SDS011;10148;47.694;9.442;2023-02-18T06:09:51;2.03;;;0.98;;
19973;SDS011;10148;47.694;9.442;2023-02-18T06:12:17;1.73;;;1.02;;
19973;SDS011;10148;47.694;9.442;2023-02-18T06:14:43;1.73;;;1.00;;
19973;SDS011;10148;47.694;9.442;2023-02-18T06:17:09;1.48;;;1.25;;
19973;SDS011;10148;47.694;9.442;2023-02-18T06:19:36;1.10;;;1.00;;
19973;SDS011;10148;47.694;9.442;2023-02-18T06:22:01;2.15;;;1.30;;
19973;SDS011;10148;47.694;9.442;2023-02-18T06:24:27;1.65;;;1.13;;
19973;SDS011;10148;47.694;9.442;2023-02-18T06:26:53;1.33;;;1.10;;
19973;SDS011;10148;47.694;9.442;2023-02-18T06:29:18;1.52;;;1.10;;
19973;SDS011;10148;47.694;9.442;2023-02-18T06:31:44;1.73;;;1.08;;
19973;SDS011;10148;47.694;9.442;2023-02-18T06:34:09;2.80;;;1.00;;
19973;SDS011;10148;47.694;9.442;2023-02-18T06:36:35;1.83;;;1.05;;
19973;SDS011;10148;47.694;9.442;2023-02-18T06:39:01;2.13;;;1.20;;
19973;SDS011;10148;47.694;9.442;2023-02-18T06:41:29;1.65;;;1.02;;
19973;SDS011;10148;47.694;9.442;2023-02-18T06:43:54;2.80;;;1.10;;
19973;SDS011;10148;47.694;9.442;2023-02-18T06:46:20;2.28;;;1.55;;
19973;SDS011;10148;47.694;9.442;2023-02-18T06:48:45;1.52;;;1.42;;
19973;SDS011;10148;47.694;9.442;2023-02-18T06:51:11;3.15;;;1.42;;
19973;SDS011;10148;47.694;9.442;2023-02-18T06:53:36;1.40;;;1.15;;
19973;SDS011;10148;47.694;9.442;2023-02-18T06:56:02;2.30;;;1.63;;
19973;SDS011;10148;47.694;9.442;2023-02-18T06:58:27;2.63;;;1.80;;
19973;SDS011;10148;47.694;9.442;2023-02-18T07:00:53;2.53;;;1.88;;
19973;SDS011;10148;47.694;9.442;2023-02-18T07:03:18;2.03;;;1.73;;
19973;SDS011;10148;47.694;9.442;2023-02-18T07:05:44;2.83;;;2.22;;
19973;SDS011;10148;47.694;9.442;2023-02-18T07:08:09;4.40;;;2.30;;
19973;SDS011;10148;47.694;9.442;2023-02-18T07:10:35;2.28;;;1.88;;
19973;SDS011;10148;47.694;9.442;2023-02-18T07:13:01;3.40;;;2.03;;
19973;SDS011;10148;47.694;9.442;2023-02-18T07:15:27;3.20;;;2.15;;
19973;SDS011;10148;47.694;9.442;2023-02-18T07:17:53;3.47;;;1.95;;
19973;SDS011;10148;47.694;9.442;2023-02-18T07:20:19;3.22;;;2.08;;
19973;SDS011;10148;47.694;9.442;2023-02-18T07:22:45;2.25;;;1.67;;
19973;SDS011;10148;47.694;9.442;2023-02-18T07:25:11;2.00;;;1.58;;
19973;SDS011;10148;47.694;9.442;2023-02-18T07:27:37;2.92;;;1.73;;
19973;SDS011;10148;47.694;9.442;2023-02-18T07:30:02;3.35;;;1.70;;
19973;SDS011;10148;47.694;9.442;2023-02-18T07:32:28;2.63;;;1.48;;
19973;SDS011;10148;47.694;9.442;2023-02-18T07:34:54;2.45;;;1.42;;
19973;SDS011;10148;47.694;9.442;2023-02-18T07:37:19;3.08;;;1.35;;
19973;SDS011;10148;47.694;9.442;2023-02-18T07:39:45;1.98;;;1.23;;
19973;SDS011;10148;47.694;9.442;2023-02-18T07:42:11;2.15;;;1.50;;
19973;SDS011;10148;47.694;9.442;2023-02-18T07:44:38;1.92;;;1.30;;
19973;SDS011;10148;47.694;9.442;2023-02-18T07:47:05;2.72;;;1.02;;
19973;SDS011;10148;47.694;9.442;2023-02-18T07:49:32;2.30;;;1.30;;
19973;SDS011;10148;47.694;9.442;2023-02-18T07:51:58;2.45;;;1.00;;
19973;SDS011;10148;47.694;9.442;2023-02-18T07:54:24;1.13;;;1.00;;
19973;SDS011;10148;47.694;9.442;2023-02-18T07:56:50;2.30;;;1.20;;
19973;SDS011;10148;47.694;9.442;2023-02-18T07:59:16;2.85;;;1.15;;
19973;SDS011;10148;47.694;9.442;2023-02-18T08:01:42;4.13;;;2.90;;
19973;SDS011;10148;47.694;9.442;2023-02-18T08:04:07;1.67;;;0.90;;
19973;SDS011;10148;47.694;9.442;2023-02-18T08:06:37;1.48;;;1.08;;
19973;SDS011;10148;47.694;9.442;2023-02-18T08:09:04;2.00;;;1.05;;
19973;SDS011;10148;47.694;9.442;2023-02-18T08:11:31;2.03;;;0.93;;
19973;SDS011;10148;47.694;9.442;2023-02-18T08:13:57;1.40;;;0.95;;
19973;SDS011;10148;47.694;9.442;2023-02-18T08:16:23;1.83;;;0.88;;
19973;SDS011;10148;47.694;9.442;2023-02-18T08:18:49;3.20;;;1.10;;
19973;SDS011;10148;47.694;9.442;2023-02-18T08:21:16;0.90;;;0.80;;
19973;SDS011;10148;47.694;9.442;2023-02-18T08:23:44;3.30;;;1.02;;
19973;SDS011;10148;47.694;9.442;2023-02-18T08:26:10;1.52;;;1.10;;
19973;SDS011;10148;47.694;9.442;2023-02-18T08:28:36;1.95;;;1.17;;
19973;SDS011;10148;47.694;9.442;2023-02-18T08:31:01;2.50;;;0.80;;
19973;SDS011;10148;47.694;9.442;2023-02-18T08:33:27;2.00;;;1.10;;
19973;SDS011;10148;47.694;9.442;2023-02-18T08:35:53;1.60;;;1.15;;
19973;SDS011;10148;47.694;9.442;2023-02-18T08:38:20;1.50;;;0.95;;
19973;SDS011;10148;47.694;9.442;2023-02-18T08:40:47;1.58;;;1.20;;
19973;SDS011;10148;47.694;9.442;2023-02-18T08:43:13;1.35;;;1.00;;
19973;SDS011;10148;47.694;9.442;2023-02-18T08:45:39;1.15;;;0.85;;
19973;SDS011;10148;47.694;9.442;2023-02-18T08:48:06;1.40;;;0.90;;
19973;SDS011;10148;47.694;9.442;2023-02-18T08:50:32;1.58;;;0.80;;
19973;SDS011;10148;47.694;9.442;2023-02-18T08:52:58;1.05;;;0.60;;
19973;SDS011;10148;47.694;9.442;2023-02-18T08:55:27;0.75;;;0.63;;
19973;SDS011;10148;47.694;9.442;2023-02-18T08:57:53;1.17;;;0.80;;
19973;SDS011;10148;47.694;9.442;2023-02-18T09:00:19;1.15;;;0.77;;
19973;SDS011;10148;47.694;9.442;2023-02-18T09:02:44;0.88;;;0.80;;
19973;SDS011;10148;47.694;9.442;2023-02-18T09:05:11;0.85;;;0.63;;
19973;SDS011;10148;47.694;9.442;2023-02-18T09:07:37;1.15;;;0.68;;
19973;SDS011;10148;47.694;9.442;2023-02-18T09:10:03;0.90;;;0.73;;
19973;SDS011;10148;47.694;9.442;2023-02-18T09:12:29;0.50;;;0.50;;
19973;SDS011;10148;47.694;9.442;2023-02-18T09:14:55;0.70;;;0.35;;
19973;SDS011;10148;47.694;9.442;2023-02-18T09:17:20;0.90;;;0.43;;
19973;SDS011;10148;47.694;9.442;2023-02-18T09:19:46;1.08;;;0.80;;
19973;SDS011;10148;47.694;9.442;2023-02-18T09:22:12;0.93;;;0.60;;
19973;SDS011;10148;47.694;9.442;2023-02-18T09:24:38;2.35;;;0.52;;
19973;SDS011;10148;47.694;9.442;2023-02-18T09:27:05;1.23;;;0.60;;
19973;SDS011;10148;47.694;9.442;2023-02-18T09:29:30;0.93;;;0.40;;
19973;SDS011;10148;47.694;9.442;2023-02-18T09:32:00;1.58;;;0.43;;
19973;SDS011;10148;47.694;9.442;2023-02-18T09:34:26;0.93;;;0.45;;
19973;SDS011;10148;47.694;9.442;2023-02-18T09:36:52;0.57;;;0.43;;
19973;SDS011;10148;47.694;9.442;2023-02-18T09:39:18;1.20;;;0.50;;
19973;SDS011;10148;47.694;9.442;2023-02-18T09:41:49;0.70;;;0.47;;
19973;SDS011;10148;47.694;9.442;2023-02-18T09:44:27;1.27;;;0.60;;
19973;SDS011;10148;47.694;9.442;2023-02-18T09:50:00;0.40;;;0.40;;
19973;SDS011;10148;47.694;9.442;2023-02-18T09:52:48;1.38;;;0.60;;
19973;SDS011;10148;47.694;9.442;2023-02-18T09:57:56;0.60;;;0.40;;
19973;SDS011;10148;47.694;9.442;2023-02-18T10:00:30;1.20;;;0.50;;
19973;SDS011;10148;47.694;9.442;2023-02-18T10:03:02;0.68;;;0.50;;
19973;SDS011;10148;47.694;9.442;2023-02-18T10:05:31;0.77;;;0.40;;
19973;SDS011;10148;47.694;9.442;2023-02-18T10:08:02;1.55;;;0.40;;
19973;SDS011;10148;47.694;9.442;2023-02-18T10:13:12;1.10;;;0.82;;
19973;SDS011;10148;47.694;9.442;2023-02-18T10:15:55;1.10;;;0.40;;
19973;SDS011;10148;47.694;9.442;2023-02-18T10:18:28;1.00;;;0.47;;
19973;SDS011;10148;47.694;9.442;2023-02-18T10:21:14;0.57;;;0.45;;
19973;SDS011;10148;47.694;9.442;2023-02-18T10:23:45;0.40;;;0.30;;
19973;SDS011;10148;47.694;9.442;2023-02-18T10:26:36;1.98;;;0.50;;
19973;SDS011;10148;47.694;9.442;2023-02-18T10:29:02;1.90;;;1.25;;
19973;SDS011;10148;47.694;9.442;2023-02-18T10:31:33;2.38;;;1.33;;
19973;SDS011;10148;47.694;9.442;2023-02-18T10:34:22;2.13;;;1.30;;
19973;SDS011;10148;47.694;9.442;2023-02-18T10:36:55;3.70;;;0.93;;
19973;SDS011;10148;47.694;9.442;2023-02-18T10:44:51;2.38;;;1.10;;
19973;SDS011;10148;47.694;9.442;2023-02-18T10:53:12;1.48;;;0.60;;
19973;SDS011;10148;47.694;9.442;2023-02-18T10:55:50;0.50;;;0.43;;
19973;SDS011;10148;47.694;9.442;2023-02-18T10:58:34;1.60;;;0.60;;
19973;SDS011;10148;47.694;9.442;2023-02-18T11:01:06;0.70;;;0.50;;
19973;SDS011;10148;47.694;9.442;2023-02-18T11:08:56;0.45;;;0.45;;
19973;SDS011;10148;47.694;9.442;2023-02-18T11:11:23;0.50;;;0.50;;
19973;SDS011;10148;47.694;9.442;2023-02-18T11:13:59;0.98;;;0.68;;
19973;SDS011;10148;47.694;9.442;2023-02-18T11:16:37;0.60;;;0.55;;
19973;SDS011;10148;47.694;9.442;2023-02-18T11:19:03;0.90;;;0.45;;
19973;SDS011;10148;47.694;9.442;2023-02-18T11:21:31;0.70;;;0.70;;
19973;SDS011;10148;47.694;9.442;2023-02-18T11:24:05;3.22;;;1.75;;
19973;SDS011;10148;47.694;9.442;2023-02-18T11:26:39;3.85;;;0.45;;
19973;SDS011;10148;47.694;9.442;2023-02-18T11:29:10;0.73;;;0.30;;
19973;SDS011;10148;47.694;9.442;2023-02-18T11:31:44;0.88;;;0.50;;
19973;SDS011;10148;47.694;9.442;2023-02-18T11:34:15;0.98;;;0.57;;
19973;SDS011;10148;47.694;9.442;2023-02-18T11:36:46;0.70;;;0.65;;
19973;SDS011;10148;47.694;9.442;2023-02-18T11:39:16;0.70;;;0.68;;
19973;SDS011;10148;47.694;9.442;2023-02-18T11:41:55;0.88;;;0.70;;
19973;SDS011;10148;47.694;9.442;2023-02-18T11:47:01;1.08;;;0.55;;
19973;SDS011;10148;47.694;9.442;2023-02-18T11:49:36;0.50;;;0.50;;
19973;SDS011;10148;47.694;9.442;2023-02-18T11:52:03;1.65;;;0.60;;
19973;SDS011;10148;47.694;9.442;2023-02-18T11:54:38;0.13;;;0.13;;
19973;SDS011;10148;47.694;9.442;2023-02-18T11:57:05;1.05;;;0.30;;
19973;SDS011;10148;47.694;9.442;2023-02-18T11:59:35;0.50;;;0.50;;
19973;SDS011;10148;47.694;9.442;2023-02-18T12:04:42;1.30;;;0.70;;
19973;SDS011;10148;47.694;9.442;2023-02-18T12:07:23;1.55;;;0.70;;
19973;SDS011;10148;47.694;9.442;2023-02-18T12:10:04;2.10;;;0.93;;
19973;SDS011;10148;47.694;9.442;2023-02-18T12:13:00;1.50;;;0.82;;
19973;SDS011;10148;47.694;9.442;2023-02-18T12:26:48;0.98;;;0.90;;
19973;SDS011;10148;47.694;9.442;2023-02-18T12:29:30;1.00;;;0.73;;
19973;SDS011;10148;47.694;9.442;2023-02-18T12:40:31;0.80;;;0.80;;
19973;SDS011;10148;47.694;9.442;2023-02-18T12:59:45;1.77;;;0.60;;
19973;SDS011;10148;47.694;9.442;2023-02-18T13:08:25;1.45;;;0.82;;
19973;SDS011;10148;47.694;9.442;2023-02-18T13:14:03;1.55;;;0.52;;
19973;SDS011;10148;47.694;9.442;2023-02-18T13:16:35;0.70;;;0.60;;
19973;SDS011;10148;47.694;9.442;2023-02-18T13:19:10;0.68;;;0.65;;
19973;SDS011;10148;47.694;9.442;2023-02-18T13:21:58;1.10;;;0.75;;
19973;SDS011;10148;47.694;9.442;2023-02-18T13:24:34;2.22;;;0.60;;
19973;SDS011;10148;47.694;9.442;2023-02-18T13:30:17;1.00;;;0.70;;
19973;SDS011;10148;47.694;9.442;2023-02-18T13:32:57;0.93;;;0.52;;
19973;SDS011;10148;47.694;9.442;2023-02-18T13:35:34;0.80;;;0.80;;
19973;SDS011;10148;47.694;9.442;2023-02-18T13:38:15;1.58;;;0.73;;
19973;SDS011;10148;47.694;9.442;2023-02-18T13:40:59;1.45;;;0.60;;
19973;SDS011;10148;47.694;9.442;2023-02-18T13:51:10;0.55;;;0.52;;
19973;SDS011;10148;47.694;9.442;2023-02-18T13:54:43;1.35;;;0.80;;
19973;SDS011;10148;47.694;9.442;2023-02-18T13:57:03;3.50;;;1.33;;
19973;SDS011;10148;47.694;9.442;2023-02-18T13:59:44;1.13;;;1.00;;
19973;SDS011;10148;47.694;9.442;2023-02-18T14:10:00;0.43;;;0.32;;
19973;SDS011;10148;47.694;9.442;2023-02-18T14:12:41;1.83;;;0.60;;
19973;SDS011;10148;47.694;9.442;2023-02-18T14:17:47;0.90;;;0.60;;
19973;SDS011;10148;47.694;9.442;2023-02-18T14:27:36;0.32;;;0.20;;
19973;SDS011;10148;47.694;9.442;2023-02-18T14:30:13;0.40;;;0.30;;
19973;SDS011;10148;47.694;9.442;2023-02-18T14:32:40;1.52;;;0.25;;
19973;SDS011;10148;47.694;9.442;2023-02-18T14:37:49;0.45;;;0.22;;
19973;SDS011;10148;47.694;9.442;2023-02-18T14:51:44;0.35;;;0.32;;
19973;SDS011;10148;47.694;9.442;2023-02-18T14:54:15;0.32;;;0.20;;
19973;SDS011;10148;47.694;9.442;2023-02-18T14:56:49;0.65;;;0.40;;
19973;SDS011;10148;47.694;9.442;2023-02-18T14:59:19;1.30;;;0.28;;
19973;SDS011;10148;47.694;9.442;2023-02-18T15:01:46;0.52;;;0.30;;
19973;SDS011;10148;47.694;9.442;2023-02-18T15:04:15;0.65;;;0.20;;
19973;SDS011;10148;47.694;9.442;2023-02-18T15:06:40;0.88;;;0.20;;
19973;SDS011;10148;47.694;9.442;2023-02-18T15:09:13;0.40;;;0.20;;
19973;SDS011;10148;47.694;9.442;2023-02-18T15:11:46;0.20;;;0.20;;
19973;SDS011;10148;47.694;9.442;2023-02-18T15:14:17;0.52;;;0.30;;
19973;SDS011;10148;47.694;9.442;2023-02-18T15:16:50;0.77;;;0.30;;
19973;SDS011;10148;47.694;9.442;2023-02-18T15:19:27;0.47;;;0.20;;
19973;SDS011;10148;47.694;9.442;2023-02-18T15:21:59;0.73;;;0.30;;
19973;SDS011;10148;47.694;9.442;2023-02-18T15:24:31;0.95;;;0.40;;
19973;SDS011;10148;47.694;9.442;2023-02-18T15:26:59;0.40;;;0.20;;
19973;SDS011;10148;47.694;9.442;2023-02-18T15:29:29;0.65;;;0.20;;
19973;SDS011;10148;47.694;9.442;2023-02-18T15:31:58;1.48;;;0.25;;
19973;SDS011;10148;47.694;9.442;2023-02-18T15:36:53;0.28;;;0.28;;
19973;SDS011;10148;47.694;9.442;2023-02-18T15:39:19;0.30;;;0.20;;
19973;SDS011;10148;47.694;9.442;2023-02-18T15:41:45;0.28;;;0.25;;
19973;SDS011;10148;47.694;9.442;2023-02-18T15:44:17;1.02;;;0.32;;
19973;SDS011;10148;47.694;9.442;2023-02-18T15:46:47;0.82;;;0.40;;
19973;SDS011;10148;47.694;9.442;2023-02-18T15:49:14;0.80;;;0.35;;
19973;SDS011;10148;47.694;9.442;2023-02-18T15:51:42;0.52;;;0.20;;
19973;SDS011;10148;47.694;9.442;2023-02-18T15:54:13;0.20;;;0.20;;
19973;SDS011;10148;47.694;9.442;2023-02-18T15:56:42;0.20;;;0.17;;
19973;SDS011;10148;47.694;9.442;2023-02-18T15:59:17;0.50;;;0.30;;
19973;SDS011;10148;47.694;9.442;2023-02-18T16:01:53;0.60;;;0.40;;
19973;SDS011;10148;47.694;9.442;2023-02-18T16:04:21;0.28;;;0.28;;
19973;SDS011;10148;47.694;9.442;2023-02-18T16:06:52;0.32;;;0.25;;
19973;SDS011;10148;47.694;9.442;2023-02-18T16:09:24;0.50;;;0.50;;
19973;SDS011;10148;47.694;9.442;2023-02-18T16:11:54;0.50;;;0.30;;
19973;SDS011;10148;47.694;9.442;2023-02-18T16:14:40;0.43;;;0.30;;
19973;SDS011;10148;47.694;9.442;2023-02-18T16:19:47;0.43;;;0.32;;
19973;SDS011;10148;47.694;9.442;2023-02-18T16:22:21;1.45;;;0.40;;
19973;SDS011;10148;47.694;9.442;2023-02-18T16:25:00;0.25;;;0.22;;
19973;SDS011;10148;47.694;9.442;2023-02-18T16:27:49;0.30;;;0.30;;
19973;SDS011;10148;47.694;9.442;2023-02-18T16:30:23;1.38;;;0.45;;
19973;SDS011;10148;47.694;9.442;2023-02-18T16:32:51;0.80;;;0.50;;
19973;SDS011;10148;47.694;9.442;2023-02-18T16:35:19;0.30;;;0.30;;
19973;SDS011;10148;47.694;9.442;2023-02-18T16:37:46;0.80;;;0.55;;
19973;SDS011;10148;47.694;9.442;2023-02-18T16:43:08;0.50;;;0.40;;
19973;SDS011;10148;47.694;9.442;2023-02-18T16:45:43;0.40;;;0.30;;
19973;SDS011;10148;47.694;9.442;2023-02-18T16:48:17;0.50;;;0.30;;
19973;SDS011;10148;47.694;9.442;2023-02-18T16:50:44;0.88;;;0.50;;
19973;SDS011;10148;47.694;9.442;2023-02-18T16:53:13;0.55;;;0.40;;
19973;SDS011;10148;47.694;9.442;2023-02-18T16:55:39;0.60;;;0.50;;
19973;SDS011;10148;47.694;9.442;2023-02-18T16:58:04;0.35;;;0.35;;
19973;SDS011;10148;47.694;9.442;2023-02-18T17:00:30;0.90;;;0.40;;
19973;SDS011;10148;47.694;9.442;2023-02-18T17:02:57;1.65;;;0.43;;
19973;SDS011;10148;47.694;9.442;2023-02-18T17:05:27;5.28;;;2.28;;
19973;SDS011;10148;47.694;9.442;2023-02-18T17:08:14;2.78;;;2.08;;
19973;SDS011;10148;47.694;9.442;2023-02-18T17:10:41;1.23;;;0.95;;
19973;SDS011;10148;47.694;9.442;2023-02-18T17:13:10;0.60;;;0.50;;
19973;SDS011;10148;47.694;9.442;2023-02-18T17:15:49;0.80;;;0.30;;
19973;SDS011;10148;47.694;9.442;2023-02-18T17:18:16;0.47;;;0.30;;
19973;SDS011;10148;47.694;9.442;2023-02-18T17:20:42;1.10;;;0.70;;
19973;SDS011;10148;47.694;9.442;2023-02-18T17:23:15;0.68;;;0.50;;
19973;SDS011;10148;47.694;9.442;2023-02-18T17:25:45;2.75;;;2.25;;
19973;SDS011;10148;47.694;9.442;2023-02-18T17:28:13;1.20;;;0.50;;
19973;SDS011;10148;47.694;9.442;2023-02-18T17:30:42;0.50;;;0.40;;
19973;SDS011;10148;47.694;9.442;2023-02-18T17:33:11;1.75;;;0.57;;
19973;SDS011;10148;47.694;9.442;2023-02-18T17:35:39;0.50;;;0.30;;
19973;SDS011;10148;47.694;9.442;2023-02-18T17:38:12;0.60;;;0.40;;